sensor_id;sensor_type;location;lat;lon;timestamp;pressure;altitude;pressure_sealevel;temperature;humidity
10127;BME280;13080;42.608;23.362;2023-04-25T00:00:55;153265.69;;;8.56;100.00
10127;BME280;13080;42.608;23.362;2023-04-25T00:03:22;153269.59;;;8.57;100.00
10127;BME280;13080;42.608;23.362;2023-04-25T00:05:50;153263.09;;;8.55;100.00
10127;BME280;13080;42.608;23.362;2023-04-25T00:08:18;153261.78;;;8.54;100.00
10127;BME280;13080;42.608;23.362;2023-04-25T00:10:45;153260.47;;;8.53;100.00
10127;BME280;13080;42.608;23.362;2023-04-25T00:13:12;153263.09;;;8.55;100.00
10127;BME280;13080;42.608;23.362;2023-04-25T00:15:40;153257.91;;;8.52;100.00
10127;BME280;13080;42.608;23.362;2023-04-25T00:18:06;153254.00;;;8.51;100.00
10127;BME280;13080;42.608;23.362;2023-04-25T00:20:35;153222.88;;;8.39;100.00
10127;BME280;13080;42.608;23.362;2023-04-25T00:23:02;153226.78;;;8.40;100.00
10127;BME280;13080;42.608;23.362;2023-04-25T00:25:30;153234.56;;;8.43;100.00
10127;BME280;13080;42.608;23.362;2023-04-25T00:27:56;153231.97;;;8.42;100.00
10127;BME280;13080;42.608;23.362;2023-04-25T00:30:23;153217.66;;;8.37;100.00
10127;BME280;13080;42.608;23.362;2023-04-25T00:32:50;153220.25;;;8.38;100.00
10127;BME280;13080;42.608;23.362;2023-04-25T00:35:17;153220.25;;;8.38;100.00
10127;BME280;13080;42.608;23.362;2023-04-25T00:37:43;153226.78;;;8.40;100.00
10127;BME280;13080;42.608;23.362;2023-04-25T00:40:10;153228.06;;;8.41;100.00
10127;BME280;13080;42.608;23.362;2023-04-25T00:42:39;153234.56;;;8.43;100.00
10127;BME280;13080;42.608;23.362;2023-04-25T00:45:09;153235.88;;;8.44;100.00
10127;BME280;13080;42.608;23.362;2023-04-25T00:47:39;153225.44;;;8.40;100.00
10127;BME280;13080;42.608;23.362;2023-04-25T00:50:08;153212.47;;;8.35;100.00
10127;BME280;13080;42.608;23.362;2023-04-25T00:52:35;153207.28;;;8.32;100.00
10127;BME280;13080;42.608;23.362;2023-04-25T00:55:03;153218.97;;;8.37;100.00
10127;BME280;13080;42.608;23.362;2023-04-25T00:57:30;153204.66;;;8.31;100.00
10127;BME280;13080;42.608;23.362;2023-04-25T00:59:58;153213.78;;;8.35;100.00
10127;BME280;13080;42.608;23.362;2023-04-25T01:02:26;153220.25;;;8.38;100.00
10127;BME280;13080;42.608;23.362;2023-04-25T01:04:53;153215.06;;;8.36;100.00
10127;BME280;13080;42.608;23.362;2023-04-25T01:07:20;153211.19;;;8.34;100.00
10127;BME280;13080;42.608;23.362;2023-04-25T01:09:47;153208.56;;;8.33;100.00
10127;BME280;13080;42.608;23.362;2023-04-25T01:12:13;153208.56;;;8.33;100.00
10127;BME280;13080;42.608;23.362;2023-04-25T01:14:40;153208.56;;;8.33;100.00
10127;BME280;13080;42.608;23.362;2023-04-25T01:17:09;153208.56;;;8.33;100.00
10127;BME280;13080;42.608;23.362;2023-04-25T01:19:36;153203.38;;;8.31;100.00
10127;BME280;13080;42.608;23.362;2023-04-25T01:22:04;153195.63;;;8.28;100.00
10127;BME280;13080;42.608;23.362;2023-04-25T01:24:32;153190.44;;;8.26;100.00
10127;BME280;13080;42.608;23.362;2023-04-25T01:26:58;153186.53;;;8.24;100.00
10127;BME280;13080;42.608;23.362;2023-04-25T01:29:27;153185.25;;;8.24;100.00
10127;BME280;13080;42.608;23.362;2023-04-25T01:31:54;153173.59;;;8.19;100.00
10127;BME280;13080;42.608;23.362;2023-04-25T01:34:21;153156.72;;;8.12;100.00
10127;BME280;13080;42.608;23.362;2023-04-25T01:36:49;153146.34;;;8.08;100.00
10127;BME280;13080;42.608;23.362;2023-04-25T01:39:18;153145.06;;;8.08;100.00
10127;BME280;13080;42.608;23.362;2023-04-25T01:41:45;153142.44;;;8.07;100.00
10127;BME280;13080;42.608;23.362;2023-04-25T01:44:12;153133.41;;;8.03;100.00
10127;BME280;13080;42.608;23.362;2023-04-25T01:46:40;153108.75;;;7.94;100.00
10127;BME280;13080;42.608;23.362;2023-04-25T01:49:07;153119.13;;;7.98;100.00
10127;BME280;13080;42.608;23.362;2023-04-25T01:51:33;153100.97;;;7.90;100.00
10127;BME280;13080;42.608;23.362;2023-04-25T01:54:00;153098.41;;;7.89;100.00
10127;BME280;13080;42.608;23.362;2023-04-25T01:56:31;153077.66;;;7.81;100.00
10127;BME280;13080;42.608;23.362;2023-04-25T01:58:58;153068.56;;;7.78;100.00
10127;BME280;13080;42.608;23.362;2023-04-25T02:01:25;153049.16;;;7.70;100.00
10127;BME280;13080;42.608;23.362;2023-04-25T02:03:52;153045.25;;;7.68;100.00
10127;BME280;13080;42.608;23.362;2023-04-25T02:06:18;153055.63;;;7.73;100.00
10127;BME280;13080;42.608;23.362;2023-04-25T02:08:45;153085.41;;;7.84;100.00
10127;BME280;13080;42.608;23.362;2023-04-25T02:11:12;153084.13;;;7.84;100.00
10127;BME280;13080;42.608;23.362;2023-04-25T02:13:40;153084.13;;;7.84;100.00
10127;BME280;13080;42.608;23.362;2023-04-25T02:16:07;153078.94;;;7.82;100.00
10127;BME280;13080;42.608;23.362;2023-04-25T02:18:33;153075.09;;;7.80;100.00
10127;BME280;13080;42.608;23.362;2023-04-25T02:21:02;153071.19;;;7.79;100.00
10127;BME280;13080;42.608;23.362;2023-04-25T02:23:29;153076.38;;;7.81;100.00
10127;BME280;13080;42.608;23.362;2023-04-25T02:25:56;153073.75;;;7.80;100.00
10127;BME280;13080;42.608;23.362;2023-04-25T02:28:23;153062.09;;;7.75;100.00
10127;BME280;13080;42.608;23.362;2023-04-25T02:30:52;153051.72;;;7.71;100.00
10127;BME280;13080;42.608;23.362;2023-04-25T02:33:19;153047.84;;;7.69;100.00
10127;BME280;13080;42.608;23.362;2023-04-25T02:35:46;153071.19;;;7.79;100.00
10127;BME280;13080;42.608;23.362;2023-04-25T02:38:13;153066.00;;;7.77;100.00
10127;BME280;13080;42.608;23.362;2023-04-25T02:40:40;153060.81;;;7.75;100.00
10127;BME280;13080;42.608;23.362;2023-04-25T02:43:07;153055.63;;;7.73;100.00
10127;BME280;13080;42.608;23.362;2023-04-25T02:45:33;153060.81;;;7.75;100.00
10127;BME280;13080;42.608;23.362;2023-04-25T02:48:02;153077.66;;;7.81;100.00
10127;BME280;13080;42.608;23.362;2023-04-25T02:50:28;153082.84;;;7.83;100.00
10127;BME280;13080;42.608;23.362;2023-04-25T02:52:55;153072.47;;;7.79;100.00
10127;BME280;13080;42.608;23.362;2023-04-25T02:55:22;153066.00;;;7.77;100.00
10127;BME280;13080;42.608;23.362;2023-04-25T02:57:49;153064.72;;;7.76;100.00
10127;BME280;13080;42.608;23.362;2023-04-25T03:00:16;153075.09;;;7.80;100.00
10127;BME280;13080;42.608;23.362;2023-04-25T03:02:42;153066.00;;;7.77;100.00
10127;BME280;13080;42.608;23.362;2023-04-25T03:05:10;153058.25;;;7.74;100.00
10127;BME280;13080;42.608;23.362;2023-04-25T03:07:37;153047.84;;;7.69;100.00
10127;BME280;13080;42.608;23.362;2023-04-25T03:10:06;153031.00;;;7.63;100.00
10127;BME280;13080;42.608;23.362;2023-04-25T03:12:32;153012.88;;;7.56;100.00
10127;BME280;13080;42.608;23.362;2023-04-25T03:14:59;153002.50;;;7.52;100.00
10127;BME280;13080;42.608;23.362;2023-04-25T03:17:26;153008.97;;;7.54;100.00
10127;BME280;13080;42.608;23.362;2023-04-25T03:19:53;152992.13;;;7.47;100.00
10127;BME280;13080;42.608;23.362;2023-04-25T03:22:22;152983.03;;;7.44;100.00
10127;BME280;13080;42.608;23.362;2023-04-25T03:24:49;152984.38;;;7.44;100.00
10127;BME280;13080;42.608;23.362;2023-04-25T03:27:16;153019.34;;;7.58;100.00
10127;BME280;13080;42.608;23.362;2023-04-25T03:29:42;152999.88;;;7.50;100.00
10127;BME280;13080;42.608;23.362;2023-04-25T03:32:09;152988.22;;;7.46;100.00
10127;BME280;13080;42.608;23.362;2023-04-25T03:34:36;152949.34;;;7.31;100.00
10127;BME280;13080;42.608;23.362;2023-04-25T03:37:03;152975.28;;;7.41;100.00
10127;BME280;13080;42.608;23.362;2023-04-25T03:39:31;152970.09;;;7.39;100.00
10127;BME280;13080;42.608;23.362;2023-04-25T03:41:57;152981.75;;;7.43;100.00
10127;BME280;13080;42.608;23.362;2023-04-25T03:44:24;152990.84;;;7.47;100.00
10127;BME280;13080;42.608;23.362;2023-04-25T03:46:51;152994.69;;;7.48;100.00
10127;BME280;13080;42.608;23.362;2023-04-25T03:49:17;153002.50;;;7.52;100.00
10127;BME280;13080;42.608;23.362;2023-04-25T03:51:44;153014.16;;;7.56;100.00
10127;BME280;13080;42.608;23.362;2023-04-25T03:54:11;153043.97;;;7.68;100.00
10127;BME280;13080;42.608;23.362;2023-04-25T03:56:39;153077.66;;;7.81;100.00
10127;BME280;13080;42.608;23.362;2023-04-25T03:59:06;153115.25;;;7.96;100.00
10127;BME280;13080;42.608;23.362;2023-04-25T04:01:33;153158.00;;;8.13;100.00
10127;BME280;13080;42.608;23.362;2023-04-25T04:04:00;153207.28;;;8.32;100.00
10127;BME280;13080;42.608;23.362;2023-04-25T04:06:27;153241.06;;;8.46;100.00
10127;BME280;13080;42.608;23.362;2023-04-25T04:08:54;153317.53;;;8.76;100.00
10127;BME280;13080;42.608;23.362;2023-04-25T04:11:22;153356.47;;;8.91;100.00
10127;BME280;13080;42.608;23.362;2023-04-25T04:13:50;153404.47;;;9.10;100.00
10127;BME280;13080;42.608;23.362;2023-04-25T04:16:16;153438.22;;;9.24;100.00
10127;BME280;13080;42.608;23.362;2023-04-25T04:18:45;153477.09;;;9.39;99.32
10127;BME280;13080;42.608;23.362;2023-04-25T04:21:12;153491.41;;;9.45;100.00
10127;BME280;13080;42.608;23.362;2023-04-25T04:23:38;153519.94;;;9.56;100.00
10127;BME280;13080;42.608;23.362;2023-04-25T04:26:05;153518.66;;;9.55;100.00
10127;BME280;13080;42.608;23.362;2023-04-25T04:28:32;153504.38;;;9.50;100.00
10127;BME280;13080;42.608;23.362;2023-04-25T04:31:00;153486.22;;;9.43;100.00
10127;BME280;13080;42.608;23.362;2023-04-25T04:33:28;153462.84;;;9.33;100.00
10127;BME280;13080;42.608;23.362;2023-04-25T04:35:54;153464.16;;;9.34;100.00
10127;BME280;13080;42.608;23.362;2023-04-25T04:38:21;153461.56;;;9.33;100.00
10127;BME280;13080;42.608;23.362;2023-04-25T04:40:49;153464.16;;;9.34;100.00
10127;BME280;13080;42.608;23.362;2023-04-25T04:43:16;153517.34;;;9.55;100.00
10127;BME280;13080;42.608;23.362;2023-04-25T04:45:44;153508.28;;;9.51;100.00
10127;BME280;13080;42.608;23.362;2023-04-25T04:48:12;153505.66;;;9.50;100.00
10127;BME280;13080;42.608;23.362;2023-04-25T04:50:39;153521.25;;;9.56;100.00
10127;BME280;13080;42.608;23.362;2023-04-25T04:53:06;153526.44;;;9.58;100.00
10127;BME280;13080;42.608;23.362;2023-04-25T04:55:33;153516.03;;;9.54;100.00
10127;BME280;13080;42.608;23.362;2023-04-25T04:58:00;153493.97;;;9.46;100.00
10127;BME280;13080;42.608;23.362;2023-04-25T05:00:28;153466.78;;;9.35;100.00
10127;BME280;13080;42.608;23.362;2023-04-25T05:02:56;153464.16;;;9.34;100.00
10127;BME280;13080;42.608;23.362;2023-04-25T05:05:24;153444.69;;;9.26;100.00
10127;BME280;13080;42.608;23.362;2023-04-25T05:07:51;153457.66;;;9.31;100.00
10127;BME280;13080;42.608;23.362;2023-04-25T05:10:18;153457.66;;;9.31;100.00
10127;BME280;13080;42.608;23.362;2023-04-25T05:12:45;153452.47;;;9.29;100.00
10127;BME280;13080;42.608;23.362;2023-04-25T05:15:12;153458.94;;;9.32;100.00
10127;BME280;13080;42.608;23.362;2023-04-25T05:17:39;153458.94;;;9.32;100.00
10127;BME280;13080;42.608;23.362;2023-04-25T05:20:07;153443.38;;;9.26;100.00
10127;BME280;13080;42.608;23.362;2023-04-25T05:22:36;153397.97;;;9.08;100.00
10127;BME280;13080;42.608;23.362;2023-04-25T05:25:03;153379.81;;;9.01;100.00
10127;BME280;13080;42.608;23.362;2023-04-25T05:27:30;153383.72;;;9.02;100.00
10127;BME280;13080;42.608;23.362;2023-04-25T05:29:56;153369.41;;;8.97;100.00
10127;BME280;13080;42.608;23.362;2023-04-25T05:32:25;153396.66;;;9.07;100.00
10127;BME280;13080;42.608;23.362;2023-04-25T05:34:54;153390.19;;;9.05;100.00
10127;BME280;13080;42.608;23.362;2023-04-25T05:37:21;153401.88;;;9.09;100.00
10127;BME280;13080;42.608;23.362;2023-04-25T05:39:49;153382.44;;;9.02;100.00
10127;BME280;13080;42.608;23.362;2023-04-25T05:42:16;153355.19;;;8.91;100.00
10127;BME280;13080;42.608;23.362;2023-04-25T05:44:42;153364.22;;;8.94;100.00
10127;BME280;13080;42.608;23.362;2023-04-25T05:47:09;153392.81;;;9.06;100.00
10127;BME280;13080;42.608;23.362;2023-04-25T05:49:36;153421.34;;;9.17;100.00
10127;BME280;13080;42.608;23.362;2023-04-25T05:52:02;153442.09;;;9.25;100.00
10127;BME280;13080;42.608;23.362;2023-04-25T05:54:29;153444.69;;;9.26;100.00
10127;BME280;13080;42.608;23.362;2023-04-25T05:56:57;153400.59;;;9.09;100.00
10127;BME280;13080;42.608;23.362;2023-04-25T05:59:24;153383.72;;;9.02;100.00
10127;BME280;13080;42.608;23.362;2023-04-25T06:01:51;153407.06;;;9.11;100.00
10127;BME280;13080;42.608;23.362;2023-04-25T06:04:18;153426.50;;;9.19;100.00
10127;BME280;13080;42.608;23.362;2023-04-25T06:06:44;153447.28;;;9.27;100.00
10127;BME280;13080;42.608;23.362;2023-04-25T06:09:11;153475.81;;;9.39;100.00
10127;BME280;13080;42.608;23.362;2023-04-25T06:11:38;153479.72;;;9.40;100.00
10127;BME280;13080;42.608;23.362;2023-04-25T06:14:06;153527.72;;;9.59;100.00
10127;BME280;13080;42.608;23.362;2023-04-25T06:16:33;153525.16;;;9.58;100.00
10127;BME280;13080;42.608;23.362;2023-04-25T06:19:00;153525.16;;;9.58;100.00
10127;BME280;13080;42.608;23.362;2023-04-25T06:21:26;153542.03;;;9.65;100.00
10127;BME280;13080;42.608;23.362;2023-04-25T06:23:53;153530.34;;;9.60;100.00
10127;BME280;13080;42.608;23.362;2023-04-25T06:26:20;153529.06;;;9.60;100.00
10127;BME280;13080;42.608;23.362;2023-04-25T06:28:47;153556.28;;;9.70;100.00
10127;BME280;13080;42.608;23.362;2023-04-25T06:31:15;153561.47;;;9.72;100.00
10127;BME280;13080;42.608;23.362;2023-04-25T06:33:42;153566.66;;;9.74;100.00
10127;BME280;13080;42.608;23.362;2023-04-25T06:36:08;153584.81;;;9.82;100.00
10127;BME280;13080;42.608;23.362;2023-04-25T06:38:38;153593.94;;;9.85;100.00
10127;BME280;13080;42.608;23.362;2023-04-25T06:41:05;153588.72;;;9.83;100.00
10127;BME280;13080;42.608;23.362;2023-04-25T06:43:31;153649.75;;;10.07;100.00
10127;BME280;13080;42.608;23.362;2023-04-25T06:45:59;153688.72;;;10.23;100.00
10127;BME280;13080;42.608;23.362;2023-04-25T06:48:27;153675.69;;;10.17;100.00
10127;BME280;13080;42.608;23.362;2023-04-25T06:50:54;153684.81;;;10.21;100.00
10127;BME280;13080;42.608;23.362;2023-04-25T06:53:21;153701.69;;;10.28;100.00
10127;BME280;13080;42.608;23.362;2023-04-25T06:55:48;153719.91;;;10.35;100.00
10127;BME280;13080;42.608;23.362;2023-04-25T06:58:15;153790.03;;;10.63;100.00
10127;BME280;13080;42.608;23.362;2023-04-25T07:00:42;153856.28;;;10.89;96.88
10127;BME280;13080;42.608;23.362;2023-04-25T07:03:08;153971.91;;;11.34;98.83
10127;BME280;13080;42.608;23.362;2023-04-25T07:05:37;154003.13;;;11.47;90.89
10127;BME280;13080;42.608;23.362;2023-04-25T07:08:04;154069.44;;;11.73;96.30
10127;BME280;13080;42.608;23.362;2023-04-25T07:10:30;154130.53;;;11.97;88.55
10127;BME280;13080;42.608;23.362;2023-04-25T07:12:57;154112.34;;;11.90;91.19
10127;BME280;13080;42.608;23.362;2023-04-25T07:15:24;154088.91;;;11.80;91.49
10127;BME280;13080;42.608;23.362;2023-04-25T07:17:51;154094.09;;;11.82;89.97
10127;BME280;13080;42.608;23.362;2023-04-25T07:20:18;154124.03;;;11.94;90.43
10127;BME280;13080;42.608;23.362;2023-04-25T07:22:46;154114.97;;;11.91;92.42
10127;BME280;13080;42.608;23.362;2023-04-25T07:25:12;154099.31;;;11.84;93.01
10127;BME280;13080;42.608;23.362;2023-04-25T07:27:39;154060.31;;;11.69;93.73
10127;BME280;13080;42.608;23.362;2023-04-25T07:30:07;154047.31;;;11.64;94.41
10127;BME280;13080;42.608;23.362;2023-04-25T07:32:34;154039.50;;;11.61;95.69
10127;BME280;13080;42.608;23.362;2023-04-25T07:35:01;154057.72;;;11.68;96.79
10127;BME280;13080;42.608;23.362;2023-04-25T07:37:28;154038.22;;;11.60;96.65
10127;BME280;13080;42.608;23.362;2023-04-25T07:39:56;154036.91;;;11.60;99.53
10127;BME280;13080;42.608;23.362;2023-04-25T07:42:23;154038.22;;;11.60;95.67
10127;BME280;13080;42.608;23.362;2023-04-25T07:44:50;154096.69;;;11.83;97.52
10127;BME280;13080;42.608;23.362;2023-04-25T07:47:17;154129.25;;;11.96;95.91
10127;BME280;13080;42.608;23.362;2023-04-25T07:49:45;154199.44;;;12.24;93.62
10127;BME280;13080;42.608;23.362;2023-04-25T07:52:12;154192.94;;;12.21;92.23
10127;BME280;13080;42.608;23.362;2023-04-25T07:54:39;154196.88;;;12.23;94.80
10127;BME280;13080;42.608;23.362;2023-04-25T07:57:07;154229.41;;;12.36;91.72
10127;BME280;13080;42.608;23.362;2023-04-25T07:59:33;154241.09;;;12.40;92.74
10127;BME280;13080;42.608;23.362;2023-04-25T08:02:01;154258.00;;;12.47;90.73
10127;BME280;13080;42.608;23.362;2023-04-25T08:04:29;154252.81;;;12.45;91.34
10127;BME280;13080;42.608;23.362;2023-04-25T08:06:56;154312.59;;;12.68;91.93
10127;BME280;13080;42.608;23.362;2023-04-25T08:09:22;154311.31;;;12.68;88.84
10127;BME280;13080;42.608;23.362;2023-04-25T08:11:50;154355.56;;;12.85;88.75
10127;BME280;13080;42.608;23.362;2023-04-25T08:14:18;154416.72;;;13.09;89.38
10127;BME280;13080;42.608;23.362;2023-04-25T08:16:45;154462.28;;;13.27;92.91
10127;BME280;13080;42.608;23.362;2023-04-25T08:19:11;154519.59;;;13.50;86.77
10127;BME280;13080;42.608;23.362;2023-04-25T08:21:38;154554.72;;;13.64;85.73
10127;BME280;13080;42.608;23.362;2023-04-25T08:24:05;154552.09;;;13.63;83.21
10127;BME280;13080;42.608;23.362;2023-04-25T08:26:32;154556.00;;;13.64;83.51
10127;BME280;13080;42.608;23.362;2023-04-25T08:28:59;154565.13;;;13.68;82.60
10127;BME280;13080;42.608;23.362;2023-04-25T08:31:28;154639.34;;;13.97;83.79
10127;BME280;13080;42.608;23.362;2023-04-25T08:33:54;154656.28;;;14.04;77.79
10127;BME280;13080;42.608;23.362;2023-04-25T08:36:21;154686.22;;;14.16;79.72
10127;BME280;13080;42.608;23.362;2023-04-25T08:38:48;154724.00;;;14.30;75.64
10127;BME280;13080;42.608;23.362;2023-04-25T08:41:15;154769.59;;;14.48;74.78
10127;BME280;13080;42.608;23.362;2023-04-25T08:43:43;154774.75;;;14.50;75.14
10127;BME280;13080;42.608;23.362;2023-04-25T08:46:11;154783.88;;;14.54;75.76
10127;BME280;13080;42.608;23.362;2023-04-25T08:48:40;154815.22;;;14.66;76.15
10127;BME280;13080;42.608;23.362;2023-04-25T08:51:10;154798.28;;;14.60;76.74
10127;BME280;13080;42.608;23.362;2023-04-25T08:53:41;154842.53;;;14.77;71.52
10127;BME280;13080;42.608;23.362;2023-04-25T08:56:10;154800.88;;;14.61;72.22
10127;BME280;13080;42.608;23.362;2023-04-25T08:58:39;154779.97;;;14.52;73.13
10127;BME280;13080;42.608;23.362;2023-04-25T09:01:07;154783.88;;;14.54;65.20
10127;BME280;13080;42.608;23.362;2023-04-25T09:03:35;154816.50;;;14.67;64.67
10127;BME280;13080;42.608;23.362;2023-04-25T09:06:03;154880.34;;;14.92;68.61
10127;BME280;13080;42.608;23.362;2023-04-25T09:08:30;154864.69;;;14.86;68.40
10127;BME280;13080;42.608;23.362;2023-04-25T09:10:57;154898.56;;;14.99;65.81
10127;BME280;13080;42.608;23.362;2023-04-25T09:13:25;154916.81;;;15.06;66.74
10127;BME280;13080;42.608;23.362;2023-04-25T09:15:53;154993.72;;;15.36;68.25
10127;BME280;13080;42.608;23.362;2023-04-25T09:18:24;155021.09;;;15.47;63.79
10127;BME280;13080;42.608;23.362;2023-04-25T09:20:52;154991.09;;;15.35;64.16
10127;BME280;13080;42.608;23.362;2023-04-25T09:23:21;155018.47;;;15.46;64.79
10127;BME280;13080;42.608;23.362;2023-04-25T09:25:49;154978.06;;;15.30;66.55
10127;BME280;13080;42.608;23.362;2023-04-25T09:28:23;154957.19;;;15.22;68.59
10127;BME280;13080;42.608;23.362;2023-04-25T09:30:54;154896.00;;;14.98;70.09
10127;BME280;13080;42.608;23.362;2023-04-25T09:33:27;154925.94;;;15.10;72.30
10127;BME280;13080;42.608;23.362;2023-04-25T09:35:54;154928.53;;;15.11;72.53
10127;BME280;13080;42.608;23.362;2023-04-25T09:38:30;154896.00;;;14.98;72.15
10127;BME280;13080;42.608;23.362;2023-04-25T09:40:57;154902.50;;;15.01;73.42
10127;BME280;13080;42.608;23.362;2023-04-25T09:43:24;154869.91;;;14.88;77.42
10127;BME280;13080;42.608;23.362;2023-04-25T09:45:53;154803.44;;;14.62;77.03
10127;BME280;13080;42.608;23.362;2023-04-25T09:48:23;154742.22;;;14.38;78.21
10127;BME280;13080;42.608;23.362;2023-04-25T09:51:04;154673.19;;;14.10;80.51
10127;BME280;13080;42.608;23.362;2023-04-25T09:53:32;154575.50;;;13.72;78.86
10127;BME280;13080;42.608;23.362;2023-04-25T09:56:00;154541.72;;;13.59;80.21
10127;BME280;13080;42.608;23.362;2023-04-25T09:58:29;154519.59;;;13.50;84.72
10127;BME280;13080;42.608;23.362;2023-04-25T10:00:58;154493.53;;;13.40;87.09
10127;BME280;13080;42.608;23.362;2023-04-25T10:03:25;154505.25;;;13.44;88.64
10127;BME280;13080;42.608;23.362;2023-04-25T10:05:53;154527.38;;;13.53;86.95
10127;BME280;13080;42.608;23.362;2023-04-25T10:08:20;154545.59;;;13.60;84.56
10127;BME280;13080;42.608;23.362;2023-04-25T10:10:50;154604.16;;;13.83;86.44
10127;BME280;13080;42.608;23.362;2023-04-25T10:13:17;154602.88;;;13.83;86.75
10127;BME280;13080;42.608;23.362;2023-04-25T10:15:44;154614.56;;;13.87;87.16
10127;BME280;13080;42.608;23.362;2023-04-25T10:18:11;154661.50;;;14.06;84.44
10127;BME280;13080;42.608;23.362;2023-04-25T10:20:39;154669.28;;;14.09;79.22
10127;BME280;13080;42.608;23.362;2023-04-25T10:23:09;154759.16;;;14.44;82.27
10127;BME280;13080;42.608;23.362;2023-04-25T10:25:38;154796.94;;;14.59;75.46
10127;BME280;13080;42.608;23.362;2023-04-25T10:28:07;154807.38;;;14.63;69.75
10127;BME280;13080;42.608;23.362;2023-04-25T10:30:34;154722.66;;;14.30;63.91
10127;BME280;13080;42.608;23.362;2023-04-25T10:33:00;154691.44;;;14.18;61.62
10127;BME280;13080;42.608;23.362;2023-04-25T10:35:28;154743.50;;;14.38;61.70
10127;BME280;13080;42.608;23.362;2023-04-25T10:38:08;154726.56;;;14.31;64.95
10127;BME280;13080;42.608;23.362;2023-04-25T10:40:36;154763.03;;;14.46;66.83
10127;BME280;13080;42.608;23.362;2023-04-25T10:43:35;154751.31;;;14.41;57.62
10127;BME280;13080;42.608;23.362;2023-04-25T10:46:02;154709.66;;;14.25;62.06
10127;BME280;13080;42.608;23.362;2023-04-25T10:48:44;154714.84;;;14.27;62.65
10127;BME280;13080;42.608;23.362;2023-04-25T10:51:15;154756.53;;;14.43;63.44
10127;BME280;13080;42.608;23.362;2023-04-25T10:53:43;154722.66;;;14.30;58.28
10127;BME280;13080;42.608;23.362;2023-04-25T10:56:11;154684.91;;;14.15;61.01
10127;BME280;13080;42.608;23.362;2023-04-25T10:58:43;154641.94;;;13.98;60.81
10127;BME280;13080;42.608;23.362;2023-04-25T11:01:12;154570.34;;;13.70;62.24
10127;BME280;13080;42.608;23.362;2023-04-25T11:03:40;154513.03;;;13.47;66.08
10127;BME280;13080;42.608;23.362;2023-04-25T11:06:15;154412.81;;;13.08;69.24
10127;BME280;13080;42.608;23.362;2023-04-25T11:08:48;154377.69;;;12.94;74.94
10127;BME280;13080;42.608;23.362;2023-04-25T11:11:16;154297.03;;;12.62;76.01
10127;BME280;13080;42.608;23.362;2023-04-25T11:13:46;154265.78;;;12.50;80.53
10127;BME280;13080;42.608;23.362;2023-04-25T11:16:13;154222.91;;;12.33;82.83
10127;BME280;13080;42.608;23.362;2023-04-25T11:18:41;154258.00;;;12.47;83.56
10127;BME280;13080;42.608;23.362;2023-04-25T11:21:08;154325.66;;;12.74;83.63
10127;BME280;13080;42.608;23.362;2023-04-25T11:23:35;154363.34;;;12.88;85.88
10127;BME280;13080;42.608;23.362;2023-04-25T11:26:02;154416.72;;;13.09;87.28
10127;BME280;13080;42.608;23.362;2023-04-25T11:28:29;154496.16;;;13.41;82.57
10127;BME280;13080;42.608;23.362;2023-04-25T11:30:57;154615.91;;;13.88;83.89
10127;BME280;13080;42.608;23.362;2023-04-25T11:33:24;154757.81;;;14.44;80.81
10127;BME280;13080;42.608;23.362;2023-04-25T11:35:53;154816.50;;;14.67;61.07
10127;BME280;13080;42.608;23.362;2023-04-25T11:38:21;154836.03;;;14.74;66.98
10127;BME280;13080;42.608;23.362;2023-04-25T11:40:50;154722.66;;;14.30;74.67
10127;BME280;13080;42.608;23.362;2023-04-25T11:43:17;154660.16;;;14.05;76.16
10127;BME280;13080;42.608;23.362;2023-04-25T11:45:46;154537.78;;;13.57;78.27
10127;BME280;13080;42.608;23.362;2023-04-25T11:48:15;154483.09;;;13.36;81.39
10127;BME280;13080;42.608;23.362;2023-04-25T11:50:42;154438.81;;;13.18;81.58
10127;BME280;13080;42.608;23.362;2023-04-25T11:53:09;154375.06;;;12.93;83.34
10127;BME280;13080;42.608;23.362;2023-04-25T11:55:36;154324.31;;;12.73;87.50
10127;BME280;13080;42.608;23.362;2023-04-25T11:58:04;154284.00;;;12.57;88.68
10127;BME280;13080;42.608;23.362;2023-04-25T12:00:31;154221.56;;;12.33;89.22
10127;BME280;13080;42.608;23.362;2023-04-25T12:02:58;154130.53;;;11.97;88.89
10127;BME280;13080;42.608;23.362;2023-04-25T12:05:28;154001.84;;;11.46;89.69
10127;BME280;13080;42.608;23.362;2023-04-25T12:07:55;153968.03;;;11.33;91.68
10127;BME280;13080;42.608;23.362;2023-04-25T12:10:24;153913.44;;;11.11;92.83
10127;BME280;13080;42.608;23.362;2023-04-25T12:12:52;153951.16;;;11.26;91.80
10127;BME280;13080;42.608;23.362;2023-04-25T12:15:23;153958.94;;;11.29;89.70
10127;BME280;13080;42.608;23.362;2023-04-25T12:17:52;153969.31;;;11.33;90.75
10127;BME280;13080;42.608;23.362;2023-04-25T12:20:20;154005.69;;;11.48;91.49
10127;BME280;13080;42.608;23.362;2023-04-25T12:22:50;154026.50;;;11.56;90.02
10127;BME280;13080;42.608;23.362;2023-04-25T12:25:35;154133.16;;;11.98;87.62
10127;BME280;13080;42.608;23.362;2023-04-25T12:28:11;154202.06;;;12.25;86.68
10127;BME280;13080;42.608;23.362;2023-04-25T12:30:52;154277.50;;;12.55;84.68
10127;BME280;13080;42.608;23.362;2023-04-25T12:33:20;154306.13;;;12.66;85.58
10127;BME280;13080;42.608;23.362;2023-04-25T12:35:47;154332.16;;;12.76;80.83
10127;BME280;13080;42.608;23.362;2023-04-25T12:38:22;154369.84;;;12.91;80.80
10127;BME280;13080;42.608;23.362;2023-04-25T12:40:48;154384.19;;;12.97;84.37
10127;BME280;13080;42.608;23.362;2023-04-25T12:43:15;154393.25;;;13.00;86.15